Date,TemperatureHighF,TemperatureAvgF,TemperatureLowF,DewpointHighF,DewpointAvgF,DewpointLowF,HumidityHigh,HumidityAvg,HumidityLow,PressureMaxIn,PressureMinIn,WindSpeedMaxMPH,WindSpeedAvgMPH,GustSpeedMaxMPH,PrecipitationSumIn
2013-1-1,41.5,38.2,29.6,32.1,29.5,18.4,78,71,62,30.01,29.83,10,2,15,0.01
2013-1-2,29.7,26.8,23.6,18.6,17.3,15.9,75,67,61,30.18,29.97,6,0,8,0.00
2013-1-3,33.7,28.2,22.2,21.9,18.7,17.1,81,68,53,30.19,30.08,8,1,13,0.00
2013-1-4,38.0,34.0,28.7,25.4,23.7,21.2,74,66,59,30.11,29.98,11,2,18,0.00
2013-1-5,41.9,33.9,29.0,26.8,23.8,21.4,83,67,53,30.31,30.04,9,2,15,0.00
2013-1-6,47.7,38.4,32.0,35.4,30.8,26.2,96,75,50,30.21,29.97,10,1,12,0.02
2013-1-7,46.5,38.1,27.3,33.5,29.1,24.6,90,71,50,30.39,30.06,10,1,12,0.00
2013-1-8,49.0,34.7,24.1,36.5,29.4,22.3,95,82,60,30.40,30.33,9,1,15,0.01
2013-1-9,49.7,39.7,27.8,41.8,34.7,26.6,96,83,66,30.38,30.14,10,1,15,0.00
2013-1-10,50.0,42.8,34.2,35.2,29.9,28.1,81,61,46,30.51,30.26,9,2,14,0.00
2013-1-11,46.9,40.7,32.2,44.8,36.5,28.5,97,85,74,30.50,30.05,3,0,6,0.49
2013-1-12,47.2,45.3,43.9,45.6,44.3,43.3,98,96,93,30.15,30.05,3,0,6,0.00
2013-1-13,49.9,46.5,43.5,49.3,45.9,42.8,98,98,97,30.12,29.97,4,0,7,0.02
2013-1-14,56.2,51.0,40.4,54.6,47.5,38.2,99,88,66,30.26,29.89,7,1,9,0.19
2013-1-15,40.2,37.8,35.5,38.4,33.5,31.0,95,85,76,30.32,30.18,4,1,9,0.18
2013-1-16,37.2,35.1,33.2,36.4,34.1,32.1,97,96,92,30.18,29.78,7,1,14,0.58
2013-1-17,43.0,39.1,37.2,36.7,33.6,30.6,96,81,63,30.07,29.91,12,2,14,0.00
2013-1-18,33.9,29.1,26.1,27.4,15.5,9.9,77,57,42,30.47,30.11,12,3,24,0.00
2013-1-19,50.7,38.2,26.1,32.4,26.9,16.4,82,64,46,30.40,29.92,16,4,21,0.00
2013-1-20,54.9,43.2,30.7,34.8,27.2,14.7,75,55,29,30.04,29.71,17,4,23,0.00
2013-1-21,32.5,28.9,23.7,25.0,16.4,12.6,90,60,48,30.08,29.84,7,1,13,0.00
2013-1-22,25.7,19.1,13.6,13.8,3.4,-2.0,61,50,38,30.23,29.85,17,5,26,0.00
2013-1-23,20.6,15.1,11.5,5.5,1.8,-2.0,62,55,44,30.27,30.17,9,3,15,0.00
2013-1-24,20.7,19.2,17.6,4.9,3.9,2.5,54,51,45,30.43,30.38,7,2,11,0.00
2013-1-25,23.3,17.1,8.3,16.2,6.9,0.6,89,65,47,30.44,30.06,8,2,13,0.00
2013-1-26,27.7,18.6,6.8,15.2,10.3,3.5,92,72,51,30.38,30.04,9,2,14,0.01
2013-1-27,34.5,22.4,10.3,19.2,13.9,6.8,87,71,49,30.54,30.38,9,1,15,0.00
2013-1-28,36.2,30.6,20.7,35.1,27.8,16.6,96,89,79,30.49,30.00,7,1,10,0.13
2013-1-29,49.7,42.5,33.0,45.9,40.3,32.0,98,92,84,30.12,29.99,4,0,7,0.00
2013-1-30,67.5,55.5,42.2,61.0,52.9,41.5,98,91,78,30.03,29.32,16,3,22,0.13
2013-1-31,62.2,45.1,29.2,60.4,34.2,13.8,96,67,42,29.82,29.05,23,7,33,0.70
2013-2-1,31.7,28.0,22.5,20.1,12.3,7.4,73,52,39,30.26,29.81,14,4,23,0.00
2013-2-2,30.2,23.9,17.1,23.2,11.8,7.6,92,61,41,30.30,30.02,10,3,16,0.00
2013-2-3,31.1,26.3,23.6,25.5,22.4,19.3,93,86,70,30.02,29.79,5,1,10,0.03
2013-2-4,30.3,26.0,20.2,24.9,14.8,12.2,91,63,49,30.01,29.83,14,3,21,0.00
2013-2-5,33.4,30.6,28.0,30.5,27.5,22.3,94,88,78,29.94,29.86,5,0,6,0.00
2013-2-6,39.4,32.2,26.1,30.1,25.3,18.5,95,77,55,30.34,29.90,13,2,16,0.02
2013-2-7,35.2,28.8,22.0,25.6,19.1,15.1,82,67,52,30.47,30.26,6,1,9,0.00
2013-2-8,38.4,34.7,31.7,35.4,32.3,25.4,96,91,73,30.26,29.64,13,4,18,0.24
2013-2-9,33.5,28.3,21.5,31.3,20.0,11.5,97,72,50,30.35,29.75,13,4,22,0.10
2013-2-10,38.9,25.6,12.8,23.5,14.7,9.2,87,65,35,30.47,30.29,8,1,10,0.03
2013-2-11,49.7,38.9,30.7,49.4,37.1,23.6,99,93,74,30.29,29.63,8,1,13,0.27
2013-2-12,46.2,40.8,30.7,42.7,29.2,25.2,97,64,50,29.96,29.74,16,3,20,0.00
2013-2-13,45.4,34.0,24.2,33.2,27.9,22.4,96,79,56,29.95,29.65,6,1,8,0.05
2013-2-14,46.5,37.2,30.3,34.6,31.9,29.4,97,83,58,29.99,29.70,7,1,11,0.16
2013-2-15,56.9,42.1,28.5,39.1,33.3,27.5,97,74,46,30.00,29.89,10,1,14,0.00
2013-2-16,38.9,35.3,30.6,34.8,28.2,16.0,95,76,54,29.96,29.74,9,2,15,0.05
2013-2-17,32.2,27.7,20.8,16.2,9.5,3.3,55,46,38,30.05,29.70,20,6,26,0.00
2013-2-18,36.2,26.7,19.0,18.0,10.2,4.5,64,50,38,30.28,30.05,14,3,18,0.00
2013-2-19,47.0,36.9,25.1,43.4,30.5,16.2,96,78,55,30.18,29.67,14,2,23,0.20
2013-2-20,36.7,30.2,25.2,28.1,16.8,12.7,71,57,46,30.03,29.75,18,5,24,0.00
2013-2-21,35.7,29.1,24.3,18.8,16.2,13.1,69,58,49,30.28,30.00,16,4,21,0.00
2013-2-22,38.0,32.1,22.7,31.1,24.7,15.9,88,74,63,30.33,30.23,5,1,9,0.00
2013-2-23,46.2,40.0,34.0,45.7,38.9,31.1,98,96,88,30.24,29.78,10,1,12,0.14
2013-2-24,47.5,38.8,32.4,40.6,32.1,22.9,97,78,60,29.99,29.73,14,3,21,0.01
2013-2-25,44.2,35.4,28.2,30.8,26.6,22.5,88,71,55,30.21,30.00,7,1,11,0.00
2013-2-26,46.0,35.4,25.1,36.8,30.4,23.0,95,83,62,30.24,29.78,17,2,21,0.25
2013-2-27,51.7,45.3,38.2,48.0,41.7,37.2,98,88,71,29.79,29.48,13,4,19,0.21
2013-2-28,47.4,42.9,36.4,38.4,34.2,28.7,84,72,53,29.63,29.55,10,2,13,0.00
2013-3-1,46.9,39.2,30.8,32.6,29.9,27.3,93,70,54,29.79,29.61,11,3,16,0.00
2013-3-2,41.5,36.0,32.7,27.6,25.1,23.9,72,65,56,29.79,29.70,10,3,15,0.00
2013-3-3,38.5,33.0,27.3,22.9,21.0,18.9,72,61,52,29.79,29.69,12,4,18,0.00
2013-3-4,41.5,34.1,29.2,24.2,21.2,18.5,72,59,47,29.93,29.78,14,5,22,0.00
2013-3-5,47.4,37.8,31.2,29.9,26.6,23.4,83,65,47,30.01,29.92,9,2,15,0.00
2013-3-6,41.4,38.4,33.2,37.3,33.9,28.6,90,84,71,29.93,29.73,17,6,27,0.12
2013-3-7,46.0,39.1,34.2,34.7,30.9,27.6,92,73,57,30.07,29.89,15,4,19,0.01
2013-3-8,42.7,35.4,30.5,34.9,31.0,28.2,94,85,67,30.19,30.01,9,3,15,0.21
2013-3-9,58.7,42.8,32.2,32.2,25.3,18.6,72,53,23,30.29,30.17,7,2,11,0.01
2013-3-10,56.9,40.6,28.0,39.3,32.4,22.8,92,74,46,30.35,30.23,7,1,10,0.00
2013-3-11,60.4,46.1,35.2,48.4,41.6,33.4,97,86,51,30.29,30.04,9,1,12,0.00
2013-3-12,58.5,52.5,42.7,57.6,49.8,37.2,97,91,78,30.04,29.65,14,3,20,0.56
2013-3-13,49.0,41.7,33.2,37.1,30.9,25.3,87,66,47,29.91,29.80,12,3,18,0.00
2013-3-14,41.0,35.5,30.1,25.5,18.5,13.1,76,51,35,29.97,29.88,16,4,21,0.00
2013-3-15,51.0,40.1,27.7,33.9,23.3,14.3,63,51,42,30.00,29.71,14,3,22,0.00
2013-3-16,46.7,37.3,32.7,33.6,30.4,25.1,95,77,58,29.88,29.74,7,1,10,0.02
2013-3-17,38.5,34.6,30.3,24.1,22.3,20.9,72,61,51,30.27,30.13,8,1,11,0.10
2013-3-18,41.0,33.1,27.5,35.3,25.7,15.9,96,75,57,30.35,29.89,12,2,15,0.43
2013-3-19,50.5,40.9,36.2,39.8,33.8,20.6,97,79,42,29.89,29.68,22,3,22,0.25
2013-3-20,47.4,39.3,31.0,26.3,21.8,18.7,64,50,33,29.90,29.76,17,3,21,0.00
2013-3-21,39.7,33.2,30.6,29.4,26.1,20.2,90,76,49,29.80,29.73,5,2,13,0.00
2013-3-23,47.5,41.8,32.0,25.2,22.8,21.1,65,47,38,29.93,29.83,12,4,20,0.00
2013-3-24,47.2,37.6,25.8,28.2,23.4,20.5,83,58,39,29.95,29.67,9,1,12,0.00
2013-3-25,38.4,36.1,33.2,35.3,32.5,27.8,96,87,67,29.67,29.44,9,2,17,0.35
2013-3-26,51.7,42.2,35.4,37.1,33.5,28.5,95,74,41,29.87,29.60,9,2,18,0.01
2013-3-27,51.9,42.3,29.3,34.2,30.9,26.1,93,66,39,30.00,29.87,13,3,20,0.00
2013-3-28,48.7,42.1,32.2,33.1,30.8,28.2,87,65,49,30.11,29.97,12,2,17,0.00
2013-3-29,54.7,45.8,35.0,33.9,30.9,28.5,78,57,41,30.15,30.06,10,2,14,0.00
2013-3-30,57.9,52.7,42.5,31.0,27.7,25.4,58,39,29,30.15,30.06,9,2,15,0.00
2013-3-31,57.5,46.0,33.7,47.6,37.6,30.0,98,75,41,30.11,29.68,11,2,17,0.25
2013-4-1,63.2,49.6,38.0,47.1,37.8,16.9,98,67,38,29.91,29.62,14,3,20,0.01
2013-4-2,45.0,37.6,28.8,21.7,17.3,14.6,68,44,31,30.09,29.92,12,3,23,0.00
2013-4-3,47.0,38.5,30.2,21.2,16.8,12.6,55,42,29,30.29,30.09,13,3,20,0.00
2013-4-4,53.2,40.0,26.2,27.8,21.8,13.7,73,49,33,30.39,30.07,11,2,13,0.00
2013-4-5,64.3,49.2,38.9,37.4,30.0,22.7,90,53,22,30.07,29.71,9,2,15,0.00
2013-4-6,52.7,43.0,33.9,30.6,21.8,15.3,71,44,26,30.28,29.99,10,2,14,0.00
2013-4-7,63.5,46.5,36.9,43.7,34.5,30.3,85,65,40,30.29,29.99,13,3,22,0.00
2013-4-8,77.0,67.8,51.2,53.0,49.5,46.6,86,53,37,30.05,29.94,7,2,13,0.00
2013-4-9,82.5,71.6,59.5,55.8,52.2,46.4,81,53,29,29.97,29.86,14,2,21,0.00
2013-4-10,87.6,70.4,59.7,61.2,56.8,52.1,97,64,39,29.91,29.76,16,2,24,0.37
2013-4-11,64.3,58.3,48.2,61.7,54.8,44.3,99,89,74,29.95,29.74,9,2,13,0.02
2013-4-12,48.2,44.8,43.0,45.4,43.3,42.1,97,94,86,29.94,29.66,10,4,19,0.70
2013-4-13,59.7,49.7,38.0,45.4,40.1,36.5,98,72,46,29.95,29.73,13,1,17,0.01
2013-4-14,60.9,51.2,37.7,42.6,36.6,30.3,96,61,35,30.16,29.95,11,2,17,0.00
2013-4-15,61.5,52.0,45.4,43.5,38.2,32.5,77,60,49,30.33,30.16,8,1,11,0.00
2013-4-16,72.0,59.9,46.5,58.5,51.3,42.7,92,74,57,30.33,30.09,15,3,22,0.00
2013-4-17,72.1,62.1,53.9,57.7,48.1,34.7,96,64,26,30.25,30.07,8,1,10,0.02
2013-4-18,62.5,55.8,49.5,57.0,50.3,42.9,96,82,67,30.28,30.05,9,1,11,0.01
2013-4-19,78.0,67.2,56.5,66.7,62.1,54.2,97,85,66,30.04,29.60,17,4,25,0.23
2013-4-20,58.2,51.7,46.2,54.5,36.4,26.8,93,59,37,30.29,29.68,12,3,21,0.11
2013-4-21,54.9,44.5,33.2,31.4,27.2,23.8,72,51,34,30.59,30.29,8,2,14,0.00
2013-4-22,52.4,44.0,32.0,40.1,35.1,30.2,94,72,53,30.60,30.43,13,2,15,0.00
2013-4-23,49.5,45.2,42.0,44.7,39.6,34.8,91,81,72,30.43,30.11,8,2,14,0.00
2013-4-24,73.0,55.1,35.5,56.9,47.9,34.4,97,79,56,30.10,29.78,13,2,17,0.00
2013-4-25,63.7,54.1,44.9,57.1,35.7,28.4,86,52,28,30.25,29.86,14,3,18,0.00
2013-4-26,64.5,52.0,40.7,40.4,35.4,29.4,81,56,28,30.39,30.24,9,1,13,0.00
2013-4-27,69.0,54.5,38.2,38.9,36.0,32.9,84,54,29,30.41,30.25,7,1,11,0.00
2013-4-28,71.0,56.5,40.0,46.4,39.6,31.2,93,57,33,30.29,30.16,10,2,14,0.00
2013-4-29,56.2,53.6,51.4,55.4,51.9,44.4,98,94,71,30.20,30.11,6,0,8,0.21
2013-4-30,68.4,57.2,45.0,53.0,45.2,33.2,98,68,35,30.30,30.15,8,1,13,0.00
2013-5-1,68.4,53.7,38.7,47.7,40.0,33.3,93,64,32,30.45,30.30,8,1,13,0.00
2013-5-2,72.6,56.0,39.0,50.0,43.5,38.0,97,67,33,30.44,30.30,7,1,10,0.00
2013-5-3,65.0,54.5,44.7,45.2,42.6,37.6,92,67,38,30.41,30.32,12,1,13,0.00
2013-5-4,68.5,54.7,39.9,48.6,43.9,39.1,97,71,39,30.35,30.19,7,1,10,0.00
2013-5-5,64.3,56.4,45.7,46.9,44.0,41.6,89,65,47,30.21,30.18,9,1,10,0.00
2013-5-6,68.9,55.6,45.0,57.0,50.2,42.3,94,83,61,30.22,30.11,6,1,12,0.00
2013-5-7,70.9,59.8,51.9,64.1,56.6,51.0,98,90,72,30.13,30.03,6,1,10,0.12
2013-5-8,72.0,61.8,56.0,65.4,59.7,54.2,98,93,67,30.04,29.90,4,0,8,0.40
2013-5-9,71.0,61.3,55.2,59.6,56.4,54.0,98,85,62,29.96,29.87,8,1,11,0.32
2013-5-10,82.3,68.6,54.0,62.5,57.7,53.1,98,72,41,29.98,29.86,8,1,12,0.27
2013-5-11,75.3,65.8,61.5,67.1,63.5,60.2,98,93,73,29.90,29.68,8,1,11,0.65
2013-5-12,64.9,59.1,45.7,60.0,44.5,29.0,97,63,32,29.95,29.66,13,2,27,0.02
2013-5-13,56.5,48.3,38.7,37.7,33.4,25.7,92,59,34,30.11,29.95,11,2,15,0.00
2013-5-14,61.5,48.9,35.4,39.2,33.5,28.6,94,60,30,30.15,30.02,8,1,14,0.00
2013-5-15,73.3,60.7,47.7,60.6,51.0,37.6,92,71,58,30.06,29.68,8,1,16,0.00
2013-5-16,81.0,67.2,55.4,65.3,60.4,54.5,98,81,56,29.82,29.69,11,1,13,0.02
2013-5-17,74.3,62.5,50.0,58.6,48.1,43.8,93,62,36,30.17,29.82,6,1,11,0.00
2013-5-18,67.9,58.9,51.7,57.2,53.5,47.2,96,83,63,30.27,30.17,7,0,14,0.03
2013-5-19,60.9,58.6,56.0,60.3,58.0,55.1,99,98,96,30.26,30.14,4,0,7,0.21
2013-5-20,78.6,66.9,57.9,70.1,63.9,57.6,100,91,71,30.14,29.95,5,1,7,0.02
2013-5-21,83.0,73.4,61.5,72.7,68.0,60.9,99,84,68,29.96,29.82,10,2,13,0.00
2013-5-22,86.5,75.9,66.6,74.4,70.2,65.8,98,84,56,29.89,29.79,9,2,16,0.00
2013-5-23,81.1,73.0,69.3,71.6,69.0,66.8,95,88,66,29.86,29.72,11,2,19,0.16
2013-5-24,69.1,55.6,44.5,67.0,53.0,41.4,99,91,74,29.99,29.68,10,2,17,0.61
2013-5-25,60.7,52.9,44.7,43.1,40.1,35.1,92,64,42,30.04,29.94,17,3,25,0.03
2013-5-26,70.3,57.6,47.7,43.9,39.7,36.3,79,53,31,30.19,30.01,9,2,17,0.00
2013-5-27,72.5,58.2,40.5,49.5,43.2,38.8,96,62,33,30.25,30.13,9,1,10,0.00
2013-5-28,64.4,58.4,49.7,63.6,56.1,47.4,99,92,77,30.20,30.09,4,0,7,0.21
2013-5-29,89.3,73.7,59.2,72.1,65.0,59.0,100,78,47,30.10,29.99,9,1,13,0.00
2013-5-30,91.8,80.7,68.0,71.5,67.5,64.6,96,67,42,30.11,30.03,5,1,11,0.00
2013-5-31,91.8,80.0,66.0,73.2,66.6,59.6,97,67,35,30.10,29.97,10,1,13,0.00
2013-6-1,91.0,80.6,68.0,71.8,68.5,65.2,94,69,43,30.00,29.87,12,2,15,0.00
2013-6-2,87.3,79.6,71.9,72.3,69.6,66.0,89,72,59,29.89,29.76,14,3,19,0.00
2013-6-3,78.4,71.4,63.9,71.2,68.7,63.3,99,92,70,29.85,29.76,7,1,14,0.75
2013-6-4,75.5,63.7,54.0,63.0,50.6,45.2,98,65,35,30.09,29.85,9,1,14,0.01
2013-6-5,77.4,64.2,48.0,56.8,50.5,45.6,95,64,36,30.18,30.06,5,0,8,0.00
2013-6-6,72.6,63.5,54.0,63.0,58.1,52.9,98,84,52,30.11,29.95,10,1,13,0.11
2013-6-7,65.5,63.0,60.5,65.3,62.5,59.8,99,98,96,29.95,29.56,8,1,15,1.74
2013-6-8,77.0,68.2,59.2,67.3,63.2,58.4,99,85,68,30.04,29.55,7,1,12,1.04
2013-6-9,82.5,70.6,57.7,65.3,61.2,56.9,98,75,48,30.16,30.04,6,1,11,0.12
2013-6-10,71.6,68.8,65.3,71.4,67.5,63.7,99,96,86,30.12,29.76,7,0,10,1.63
2013-6-11,81.0,74.2,67.5,70.7,67.1,62.3,99,80,64,29.76,29.64,13,2,17,0.13
2013-6-12,81.5,73.5,66.3,63.6,61.0,58.3,83,66,48,29.79,29.73,9,2,13,0.00
2013-6-13,76.4,68.1,59.4,71.7,64.4,57.9,97,88,74,29.74,29.37,7,1,13,0.59
2013-6-14,76.6,61.3,54.5,64.9,56.7,52.4,97,86,54,29.89,29.48,7,1,13,0.41
2013-6-15,81.1,69.5,56.2,62.9,58.4,54.5,98,71,42,30.01,29.89,6,1,12,0.00
2013-6-16,79.5,63.1,57.2,62.9,58.8,56.0,96,88,52,29.98,29.87,3,0,9,0.00
2013-6-17,86.6,76.6,63.5,70.4,66.9,63.0,98,74,53,29.90,29.81,8,1,14,0.00
2013-6-18,76.4,67.7,63.0,70.4,66.0,62.5,98,94,80,29.88,29.78,4,0,8,0.48
2013-6-19,77.4,67.2,59.7,62.9,57.3,50.8,98,74,41,30.14,29.84,9,1,12,0.01
2013-6-20,79.8,68.1,53.5,61.2,57.1,52.6,98,71,47,30.25,30.14,7,1,9,0.00
2013-6-21,82.6,69.5,55.4,62.1,56.1,52.4,95,65,43,30.29,30.20,6,1,10,0.00
2013-6-22,85.5,71.5,55.7,68.1,62.3,54.3,97,75,52,30.24,30.09,7,1,14,0.00
2013-6-23,86.5,74.2,62.5,73.6,68.2,60.8,96,83,61,30.18,30.03,8,1,15,0.00
2013-6-24,92.0,78.7,68.8,74.8,70.7,65.3,98,78,53,30.06,29.95,6,1,13,0.00
2013-6-25,91.4,77.8,66.9,74.5,69.8,65.5,96,78,50,29.98,29.81,10,2,16,0.01
2013-6-26,89.1,77.1,69.1,75.4,69.3,65.1,98,79,55,29.85,29.75,7,1,10,0.31
2013-6-27,87.6,76.4,70.8,75.9,72.7,70.5,99,90,65,29.79,29.54,9,1,16,0.85
2013-6-28,85.0,76.1,69.0,73.5,70.6,67.9,97,84,64,29.55,29.45,9,2,13,0.05
2013-6-29,86.4,75.7,65.3,70.9,67.9,64.7,99,79,50,29.67,29.46,7,1,12,0.00
2013-6-30,81.3,74.7,70.8,76.5,72.7,69.9,98,94,83,29.87,29.67,6,0,15,0.46
2013-7-1,77.5,74.4,71.6,75.5,73.0,69.9,97,95,87,29.94,29.84,8,1,13,0.22
2013-7-2,84.9,77.2,72.5,76.1,73.8,71.5,97,90,72,30.16,30.03,10,2,13,0.16
2013-7-3,86.3,76.8,70.8,78.0,74.0,69.5,98,92,76,30.22,30.14,8,1,11,0.28
2013-7-4,88.6,80.6,74.6,77.2,74.6,72.8,99,83,63,30.23,30.14,11,2,15,0.01
2013-7-5,91.1,81.9,72.3,77.1,73.9,71.2,98,78,55,30.19,30.07,10,2,18,0.00
2013-7-6,93.9,83.2,74.0,76.7,74.5,72.6,97,77,53,30.13,30.00,8,1,10,0.00
2013-7-7,93.6,83.7,73.0,77.7,74.4,71.2,95,75,56,30.05,29.92,7,2,13,0.00
2013-7-8,87.1,78.1,69.8,73.9,70.3,66.1,96,78,60,30.04,29.96,7,1,13,0.00
2013-7-9,87.5,77.4,68.5,75.3,71.7,67.5,98,84,62,30.05,29.96,6,0,15,0.22
2013-7-10,88.4,80.0,73.0,77.2,74.2,72.4,99,84,62,29.98,29.79,9,2,13,0.00
2013-7-11,85.3,78.9,74.8,75.3,72.1,67.7,92,80,62,29.89,29.78,5,1,9,0.01
2013-7-12,76.0,72.2,69.1,70.7,67.7,64.7,98,86,72,30.02,29.88,5,1,12,0.80
2013-7-13,86.5,75.8,69.0,78.5,73.4,68.5,99,93,73,30.26,30.02,7,0,7,0.48
2013-7-14,91.3,80.3,72.5,77.7,74.5,71.8,99,84,58,30.32,30.22,6,0,10,0.01
2013-7-15,93.9,82.6,72.5,78.2,74.8,70.4,96,79,55,30.25,30.10,5,1,9,0.00
2013-7-16,92.0,82.4,74.5,76.5,72.5,67.9,96,74,47,30.18,30.10,7,1,11,0.00
2013-7-17,94.1,82.7,72.5,76.8,73.0,69.2,98,75,46,30.17,30.04,5,0,9,0.00
2013-7-18,96.1,85.3,74.5,78.8,75.6,72.1,93,75,53,30.05,29.93,7,0,7,0.00
2013-7-19,95.8,89.2,78.8,81.9,78.9,76.7,96,73,59,29.94,29.78,12,2,15,0.00
2013-7-20,92.0,83.9,78.0,77.8,73.7,70.0,82,72,58,29.81,29.72,11,2,14,0.00
2013-7-21,87.4,76.9,71.5,76.4,72.6,69.9,97,87,64,29.92,29.81,6,0,16,0.27
2013-7-22,84.5,75.8,71.0,78.4,73.5,70.4,99,93,78,29.92,29.75,4,0,7,1.69
2013-7-23,86.4,76.2,70.8,77.4,73.1,70.0,99,91,69,29.75,29.55,8,1,11,0.93
2013-7-24,79.1,74.2,66.0,71.5,67.1,56.4,98,79,64,29.90,29.60,7,1,11,0.00
2013-7-25,69.6,65.1,61.0,61.4,57.7,54.8,88,77,70,30.02,29.89,8,1,11,0.00
2013-7-26,82.0,70.3,62.2,64.7,61.5,59.4,92,76,50,30.03,29.97,7,1,10,0.00
2013-7-27,84.5,72.5,62.7,70.6,65.1,61.6,98,79,52,30.03,29.90,8,1,14,0.00
2013-7-28,81.5,71.6,67.4,74.4,68.7,64.0,97,91,77,29.95,29.85,8,1,11,0.44
2013-7-29,82.9,72.0,62.5,68.2,63.8,56.1,98,79,41,30.10,29.92,7,1,12,0.07
2013-7-30,79.1,65.3,58.0,63.1,59.6,56.9,97,84,53,30.16,30.10,6,0,9,0.00
2013-7-31,79.5,72.4,58.9,67.3,63.1,58.0,98,74,56,30.14,30.01,4,0,8,0.00
2013-8-1,71.5,69.5,67.4,70.6,68.0,64.6,97,95,91,29.93,29.80,6,0,9,0.59
2013-8-2,84.3,74.2,65.9,69.5,66.7,61.5,98,80,49,29.91,29.78,9,1,14,0.00
2013-8-3,76.6,70.8,65.3,68.9,66.7,63.8,96,87,74,29.91,29.84,9,1,11,0.02
2013-8-4,78.6,69.1,61.2,64.1,60.6,55.7,97,77,47,29.97,29.83,10,1,13,0.01
2013-8-5,77.0,65.3,54.2,60.2,55.7,52.1,96,74,45,30.06,29.97,8,1,8,0.00
2013-8-6,78.0,67.0,55.5,65.8,60.4,54.7,98,81,54,30.09,30.01,7,1,15,0.00
2013-8-7,76.0,70.5,65.9,70.7,67.2,63.1,96,89,78,30.10,30.03,9,1,13,0.00
2013-8-8,85.1,76.0,69.6,78.6,72.1,68.5,98,88,71,30.03,29.95,8,1,12,0.28
2013-8-9,84.4,78.7,74.5,78.3,74.6,71.7,95,88,76,29.98,29.79,9,1,15,0.01
2013-8-10,83.1,75.5,69.4,74.8,67.5,64.1,95,77,58,30.02,29.85,6,0,11,0.00
2013-8-11,84.3,71.7,60.0,69.9,63.3,58.1,95,77,51,30.11,29.98,6,0,10,0.00
2013-8-12,82.8,73.9,68.5,71.4,69.2,66.4,97,86,59,30.01,29.90,6,0,6,0.01
2013-8-13,80.9,72.5,66.8,72.5,70.0,66.2,99,92,71,29.90,29.68,6,0,8,1.74
2013-8-14,74.0,66.4,57.0,68.4,55.5,50.4,94,69,52,30.04,29.74,11,2,16,0.00
2013-8-15,77.0,63.7,52.2,58.3,53.8,47.8,96,74,40,30.14,30.04,5,0,8,0.00
2013-8-16,79.0,65.7,53.0,62.1,56.6,52.2,98,76,44,30.18,30.11,4,0,7,0.00
2013-8-17,80.0,67.0,54.9,64.0,58.5,53.7,97,77,47,30.25,30.18,5,0,7,0.00
2013-8-18,74.1,67.1,62.0,65.7,62.3,59.1,96,85,66,30.23,30.11,5,0,6,0.03
2013-8-19,76.5,68.8,62.0,67.8,63.5,60.2,96,84,67,30.12,30.03,6,1,10,0.00
2013-8-20,87.0,73.5,62.0,70.9,66.2,60.6,98,80,52,30.11,30.04,6,0,7,0.00
2013-8-21,88.0,76.8,63.0,72.6,67.1,61.7,98,75,46,30.16,30.04,7,1,7,0.00
2013-8-22,83.1,74.9,71.5,75.1,71.9,69.4,97,91,73,30.04,29.86,7,0,13,1.06
2013-8-23,77.0,71.6,64.0,69.9,65.5,61.1,95,82,59,30.06,29.87,7,0,8,0.00
2013-8-24,79.0,67.7,58.5,62.2,57.2,50.8,94,71,38,30.33,30.07,7,1,9,0.00
2013-8-25,81.0,66.4,53.5,61.6,56.2,52.6,98,74,41,30.39,30.22,7,0,10,0.00
2013-8-26,65.4,63.7,61.5,60.6,59.3,57.7,92,86,77,30.23,30.18,2,0,4,0.00
2013-8-27,86.4,77.8,70.4,71.7,69.4,67.3,94,77,57,29.88,29.83,7,1,12,0.04
2013-8-28,75.5,72.0,67.4,73.8,70.8,66.5,98,96,89,29.87,29.80,3,0,5,0.20
2013-8-29,80.4,73.1,69.8,72.5,69.9,66.4,99,90,72,30.00,29.84,4,0,7,0.00
2013-8-30,82.3,74.1,68.5,73.4,69.6,65.8,94,86,73,30.00,29.84,7,1,12,0.00
2013-8-31,85.9,77.6,71.1,76.2,72.4,68.7,95,85,70,29.86,29.76,8,2,11,0.00
2013-9-1,88.9,77.7,70.3,77.2,72.7,68.5,98,85,62,29.83,29.73,5,0,10,0.31
2013-9-2,80.6,74.9,72.0,74.9,72.7,70.8,98,93,77,29.77,29.68,7,0,10,0.12
2013-9-3,72.5,71.9,71.0,71.3,70.8,70.1,97,97,96,29.72,29.68,0,0,2,0.00
2013-9-4,80.3,69.8,59.5,62.3,59.7,57.0,94,72,49,30.01,29.94,9,1,12,0.00
2013-9-5,78.0,67.1,56.7,66.1,57.5,48.7,93,73,43,30.12,29.93,7,1,11,0.00
2013-9-6,70.8,59.6,50.0,51.7,48.0,41.5,94,68,37,30.24,30.12,6,0,9,0.00
2013-9-7,78.1,61.3,47.0,60.6,52.2,46.2,98,76,40,30.12,29.89,7,1,10,0.00
2013-9-8,80.6,69.9,59.0,68.5,61.0,48.9,94,75,51,30.06,29.82,6,1,13,0.00
2013-9-9,75.5,63.1,49.0,62.3,55.0,46.0,92,76,57,30.20,30.05,6,1,12,0.00
2013-9-10,86.0,75.7,66.0,75.5,70.3,61.6,94,84,69,30.16,30.04,11,2,13,0.00
2013-9-11,92.1,81.5,72.8,79.1,74.6,71.2,97,81,61,30.10,29.95,11,1,14,0.00
2013-9-12,80.4,74.9,72.0,74.3,71.6,69.8,95,89,82,29.97,29.85,6,1,10,0.14
2013-9-15,72.5,64.4,49.0,56.1,53.2,48.1,97,69,49,30.21,30.07,7,1,10,0.00
2013-9-16,70.9,61.4,56.7,60.5,56.4,50.7,95,85,62,30.21,30.02,5,0,8,0.12
2013-9-17,64.6,54.6,45.7,50.1,44.5,40.7,95,71,43,30.41,30.22,13,1,18,0.00
2013-9-18,70.4,56.1,40.2,52.2,47.1,39.2,98,75,39,30.33,30.17,6,0,9,0.00
2013-9-19,75.0,58.0,43.9,58.0,51.4,43.1,99,82,49,30.19,30.05,6,0,9,0.00
2013-9-20,78.5,62.7,48.2,63.5,56.4,47.4,99,82,51,30.07,29.95,5,1,9,0.00
2013-9-21,79.5,65.7,52.5,67.3,60.1,51.6,98,84,48,29.99,29.65,12,1,19,0.52
2013-9-22,69.0,61.9,53.5,63.3,53.6,46.1,98,76,49,29.91,29.64,9,1,14,0.36
2013-9-23,66.0,55.6,46.4,48.8,45.1,41.8,91,69,51,30.04,29.91,8,1,11,0.00
2013-9-24,71.1,54.8,41.4,54.6,46.9,39.2,95,77,47,30.06,29.88,7,1,9,0.00
2013-9-25,71.5,56.2,43.9,55.2,48.8,42.2,96,79,44,29.95,29.86,4,0,7,0.00
2013-9-26,71.9,58.8,47.2,61.7,54.4,46.3,99,86,62,30.07,29.92,4,0,7,0.00
2013-9-27,69.0,60.7,55.2,57.2,54.9,52.0,97,82,56,30.24,30.07,4,0,6,0.00
2013-9-28,72.6,60.5,51.7,57.0,53.7,50.0,96,80,52,30.30,30.21,5,0,9,0.00
2013-9-29,71.6,58.0,47.5,59.7,53.1,46.4,98,85,58,30.21,30.05,4,0,7,0.00
2013-9-30,72.5,57.7,46.4,57.2,51.8,45.3,98,83,51,30.07,29.96,4,0,7,0.00
2013-10-1,79.6,62.5,49.4,64.3,56.7,48.0,97,83,55,30.01,29.90,7,1,9,0.00
2013-10-2,82.3,70.7,55.5,65.3,60.9,53.7,98,74,54,30.00,29.91,5,1,11,0.00
2013-10-3,82.0,82.0,82.0,64.3,64.3,64.3,55,55,55,30.04,30.00,1,1,0,0.00
2013-10-4,85.9,74.6,59.0,68.9,66.3,57.5,98,78,54,30.05,29.94,7,1,9,0.00
2013-10-5,83.0,71.1,63.2,71.9,66.7,61.8,98,87,65,30.05,29.97,3,0,7,0.00
2013-10-6,78.6,69.0,65.3,71.5,66.8,63.9,98,93,78,30.04,29.95,5,0,8,0.00
2013-10-7,79.3,65.9,57.0,72.9,64.0,51.7,98,94,76,29.98,29.74,22,2,22,0.44
2013-10-8,66.3,55.3,46.7,52.0,48.7,45.3,97,80,51,30.29,29.99,6,1,10,0.00
2013-10-9,61.5,55.2,48.5,52.7,49.2,44.3,93,81,69,30.34,30.23,7,1,16,0.00
2013-10-10,60.5,56.2,51.9,57.4,53.4,49.5,96,90,77,30.23,30.00,11,2,12,0.15
2013-10-11,64.9,61.1,58.5,62.4,58.9,55.9,98,93,86,30.04,29.95,9,2,14,0.50
2013-10-12,71.8,64.3,59.2,61.0,55.1,45.3,87,73,57,30.21,30.02,10,1,13,0.00
2013-10-13,66.6,59.4,49.4,56.6,52.7,48.3,96,79,57,30.34,30.20,9,1,16,0.00
2013-10-14,67.6,54.1,44.5,55.8,49.6,43.5,98,86,60,30.33,30.21,3,0,6,0.00
2013-10-15,72.0,54.8,43.7,57.5,48.8,43.0,99,83,42,30.24,30.09,5,0,7,0.00
2013-10-16,67.9,59.6,50.0,61.1,56.4,48.4,97,89,77,30.09,29.89,3,0,5,0.00
2013-10-17,72.5,65.7,60.7,64.4,62.2,58.9,96,89,74,29.90,29.68,6,1,13,0.01
2013-10-18,66.5,58.1,45.0,64.4,48.3,43.1,93,71,51,29.98,29.68,15,2,17,0.01
2013-10-19,64.3,51.8,40.7,55.3,46.8,39.6,98,85,57,29.98,29.76,10,0,10,0.07
2013-10-20,62.5,51.7,41.0,53.7,42.4,37.9,94,73,41,30.06,29.77,10,1,15,0.01
2013-10-21,66.5,50.6,36.5,49.1,41.0,35.4,98,74,41,30.15,29.96,8,1,12,0.00
2013-10-22,66.8,53.2,45.0,53.9,46.9,35.3,98,81,58,29.96,29.76,8,1,13,0.00
2013-10-23,57.0,47.3,41.7,45.4,39.1,35.0,88,74,60,29.81,29.59,6,0,12,0.00
2013-10-24,52.4,44.3,38.5,37.6,33.8,29.5,87,68,45,30.04,29.77,11,2,21,0.00
2013-10-25,54.4,43.1,35.5,37.9,33.7,30.3,88,71,46,30.24,30.03,7,1,16,0.00
2013-10-26,55.2,43.7,31.5,36.7,33.0,28.7,93,69,42,30.23,29.90,15,2,23,0.00
2013-10-27,57.7,48.4,37.5,37.5,34.6,33.2,86,60,45,30.12,29.95,5,1,11,0.00
2013-10-28,61.7,44.5,31.5,41.4,36.3,29.9,96,76,44,30.29,30.12,7,1,13,0.00
2013-10-29,59.2,46.1,36.2,43.8,39.0,33.0,95,78,49,30.38,30.29,3,0,8,0.00
2013-10-30,59.2,49.1,39.4,53.3,46.5,38.3,96,91,79,30.33,30.17,6,0,8,0.00
2013-10-31,69.1,60.2,50.4,61.7,56.5,48.7,97,88,76,30.20,29.78,8,1,13,0.04
2013-11-1,70.0,64.6,54.5,64.6,59.7,52.6,95,85,66,29.78,29.55,21,4,26,0.37
2013-11-2,68.0,56.9,48.7,54.0,48.1,41.5,98,75,47,29.78,29.61,5,0,10,0.00
2013-11-3,52.5,45.6,33.7,43.6,33.9,22.4,88,65,40,30.44,29.78,9,2,14,0.00
2013-11-4,33.5,31.6,30.1,23.1,22.4,21.8,71,68,64,30.53,30.44,3,0,4,0.00
2013-11-5,57.7,48.2,32.5,44.3,40.0,28.2,89,74,57,30.61,30.46,3,0,8,0.00
2013-11-6,66.5,52.6,39.9,53.7,46.6,38.3,97,82,58,30.47,30.05,9,1,12,0.00
2013-11-7,61.7,54.5,39.9,58.9,50.8,35.1,96,87,72,30.04,29.76,14,2,17,0.03
2013-11-8,49.5,42.9,36.2,38.1,31.2,27.9,87,64,48,30.24,29.95,16,2,19,0.00
2013-11-9,50.5,41.0,29.7,34.1,30.2,26.2,88,67,44,30.30,29.98,9,1,12,0.00
2013-11-10,60.7,47.2,34.0,39.8,33.3,29.0,93,61,39,30.09,29.85,13,3,22,0.00
2013-11-11,55.0,48.0,37.7,38.9,33.0,28.6,72,56,41,30.22,29.96,12,3,16,0.00
2013-11-12,50.2,38.0,28.6,39.6,26.5,18.1,86,63,49,30.31,29.92,11,3,17,0.02
2013-11-13,40.4,31.7,26.0,22.0,17.6,13.8,75,57,37,30.39,30.30,12,2,17,0.00
2013-11-14,54.5,41.9,29.3,26.4,20.7,14.3,73,46,20,30.30,30.18,12,2,14,0.00
2013-11-15,57.7,41.7,28.8,37.7,30.3,24.8,91,67,36,30.24,30.15,5,0,7,0.00
2013-11-16,42.0,40.9,37.7,39.6,36.9,32.7,91,86,82,30.25,30.23,0,0,2,0.02
2013-11-17,67.0,59.7,50.0,60.4,56.1,48.3,95,88,78,30.19,29.75,9,1,12,0.00
2013-11-18,66.0,59.9,49.7,62.4,43.0,29.7,96,57,30,29.80,29.60,14,3,19,0.11
2013-11-19,49.7,42.9,30.2,29.9,26.8,23.5,76,53,44,30.34,29.80,14,4,19,0.00
2013-11-20,45.7,34.4,26.7,24.7,19.0,8.8,83,56,23,30.59,30.34,8,1,11,0.00
2013-11-21,54.2,41.8,27.2,42.1,32.3,18.4,78,69,60,30.58,30.37,6,1,8,0.00
2013-11-22,58.9,52.0,47.5,51.1,47.7,41.1,93,85,74,30.37,29.92,7,1,12,0.00
2013-11-23,52.7,42.3,31.1,50.2,29.2,15.1,91,60,43,30.05,29.92,15,4,21,0.00
2013-11-24,31.0,25.8,20.8,14.5,5.2,2.5,57,41,33,30.42,30.05,19,4,28,0.00
2013-11-25,35.5,28.0,20.5,20.1,14.7,8.3,73,58,45,30.51,30.33,11,2,12,0.00
2013-11-26,52.2,35.7,32.2,51.1,28.6,20.4,98,76,58,30.33,29.65,6,1,10,0.56
2013-11-27,62.0,44.5,33.0,61.5,41.8,23.0,99,91,64,29.82,29.37,13,4,23,1.41
2013-11-28,36.5,31.6,28.5,23.3,19.0,15.8,73,60,44,30.47,29.82,16,3,22,0.00
2013-11-29,40.0,30.9,22.7,25.2,21.7,19.3,92,70,48,30.72,30.46,10,1,14,0.00
2013-11-30,39.4,30.7,21.1,29.8,22.9,14.4,86,73,63,30.72,30.36,8,1,9,0.00
2013-12-1,50.0,38.1,28.1,34.7,30.4,25.4,93,75,52,30.36,30.05,7,1,8,0.00
2013-12-7,39.7,34.9,30.2,33.9,27.8,22.6,91,75,69,30.51,30.29,12,2,14,0.08
2013-12-8,30.6,27.5,24.3,29.3,22.1,19.2,95,80,70,30.58,30.32,7,1,10,0.01
2013-12-9,35.9,34.0,30.6,35.1,33.1,29.3,97,97,95,30.32,29.97,6,1,9,0.26
2013-12-10,33.7,30.7,21.2,32.7,29.6,19.4,97,96,93,30.16,29.89,5,1,8,0.05
2013-12-11,32.7,24.9,15.0,25.3,19.9,12.8,95,82,63,30.36,30.16,8,1,12,0.09
2013-12-12,27.3,22.4,17.8,20.6,13.5,9.5,92,70,47,30.37,30.17,10,1,14,0.01
2013-12-13,36.4,28.4,20.3,22.6,16.2,9.1,82,60,49,30.32,30.14,16,2,17,0.05
2013-12-14,31.3,28.4,26.7,30.6,25.2,22.0,97,88,75,30.41,29.68,12,3,15,0.00
2013-12-15,39.7,34.2,28.2,36.5,29.4,23.1,98,83,67,29.86,29.54,10,2,18,0.54
2013-12-16,31.7,26.5,18.6,24.5,14.9,10.8,82,62,46,30.22,29.85,14,3,20,0.00
2013-12-17,31.6,25.9,21.7,29.3,22.6,16.4,93,87,67,30.20,29.93,5,1,7,0.01
2013-12-18,37.7,28.0,18.7,25.4,21.4,15.8,94,77,57,30.19,29.93,11,1,16,0.07
2013-12-19,45.9,34.3,21.3,32.6,27.3,18.9,93,77,57,30.19,30.03,7,1,13,0.13
2013-12-20,52.2,40.6,30.3,37.8,33.6,28.3,94,78,54,30.09,29.96,7,1,14,0.00
2013-12-21,66.1,52.3,38.2,58.2,47.6,36.0,98,85,68,29.99,29.88,11,1,19,0.00
2013-12-22,68.3,64.4,60.5,63.9,60.6,57.3,93,88,82,29.95,29.79,19,4,29,0.11
2013-12-23,61.5,55.1,41.9,60.4,52.6,33.7,98,91,71,30.15,29.88,10,2,18,0.45
2013-12-24,41.9,34.9,27.3,34.2,24.4,16.4,79,66,54,30.37,30.10,14,3,21,0.00
2013-12-25,28.5,24.9,18.7,19.3,13.2,8.4,71,61,50,30.53,30.37,9,2,13,0.00
2013-12-26,39.9,28.7,19.5,30.3,23.2,16.6,93,80,65,30.40,30.17,11,1,16,0.00
2013-12-27,44.5,31.5,21.8,24.8,22.5,19.1,93,72,42,30.37,30.26,9,1,14,0.00
2013-12-28,56.9,44.9,24.2,33.5,29.4,20.9,87,57,40,30.29,30.07,11,2,17,0.00
2013-12-29,45.4,42.1,38.7,44.5,37.7,30.6,97,85,65,30.07,29.41,12,1,14,0.99
2013-12-30,45.0,37.3,25.2,41.3,30.8,15.5,96,78,60,30.17,29.72,9,2,13,0.00
2013-12-31,33.5,27.6,23.2,26.7,16.6,13.8,76,63,55,30.30,30.11,9,2,17,0.00
2014-1-1,37.7,29.6,21.1,24.6,19.9,13.3,79,67,57,30.40,30.19,6,1,8,0.00
2014-1-2,33.2,28.2,19.3,27.0,24.2,17.7,94,85,73,30.19,29.62,10,3,14,0.00